createdAt,value
2022-08-04T00:00:08.928Z,70.65
2022-08-04T00:03:18.446Z,70.45
2022-08-04T00:06:46.093Z,71.52
2022-08-04T00:10:06.085Z,73.43
2022-08-04T00:13:08.208Z,72.69
2022-08-04T00:16:10.612Z,72.29
2022-08-04T00:19:40.836Z,72.41
2022-08-04T00:22:42.991Z,71.53
2022-08-04T00:25:45.183Z,72.35
2022-08-04T00:28:48.410Z,72.65
2022-08-04T00:31:56.070Z,72.85
2022-08-04T00:34:59.802Z,73.32
2022-08-04T00:38:01.934Z,73.74
2022-08-04T00:41:19.755Z,72.78
2022-08-04T00:44:53.545Z,72.13
2022-08-04T00:48:22.230Z,72.98
2022-08-04T00:51:40.981Z,74.17
2022-08-04T00:55:09.176Z,74.28
2022-08-04T00:58:36.327Z,73.75
2022-08-04T01:02:00.643Z,74.67
2022-08-04T01:05:15.824Z,73.94
2022-08-04T01:08:26.739Z,74.30
2022-08-04T01:12:02.845Z,73.92
2022-08-04T01:15:06.898Z,73.72
2022-08-04T01:18:09.364Z,74.64
2022-08-04T01:21:29.574Z,74.35
2022-08-04T01:24:43.594Z,73.25
2022-08-04T01:27:57.807Z,74.15
2022-08-04T01:31:20.877Z,75.02
2022-08-04T01:34:23.387Z,75.70
2022-08-04T01:37:58.798Z,75.76
2022-08-04T01:41:14.205Z,75.00
2022-08-04T01:44:17.009Z,75.85
2022-08-04T01:47:21.603Z,75.88
2022-08-04T01:50:24.478Z,75.97
2022-08-04T01:53:31.890Z,75.65
2022-08-04T01:56:34.015Z,74.61
2022-08-04T01:59:36.902Z,72.83
2022-08-04T02:02:39.413Z,72.61
2022-08-04T02:06:03.414Z,71.25
2022-08-04T02:09:54.787Z,69.76
2022-08-04T02:13:28.045Z,69.98
2022-08-04T02:16:52.295Z,72.27
2022-08-04T02:20:07.343Z,71.47
2022-08-04T02:23:14.389Z,70.79
2022-08-04T02:26:22.207Z,70.54
2022-08-04T02:29:36.283Z,70.49
2022-08-04T02:32:41.677Z,69.60
2022-08-04T02:35:43.848Z,70.02
2022-08-04T02:38:58.991Z,70.40
2022-08-04T02:42:05.024Z,69.34
2022-08-04T02:45:07.643Z,68.33
2022-08-04T02:48:30.400Z,69.03
2022-08-04T02:51:42.438Z,68.70
2022-08-04T02:54:44.508Z,68.29
2022-08-04T02:57:47.558Z,68.55
2022-08-04T03:00:52.095Z,68.13
2022-08-04T03:04:12.715Z,68.74
2022-08-04T03:07:48.219Z,69.41
2022-08-04T03:11:25.293Z,70.91
2022-08-04T03:15:07.165Z,70.87
2022-08-04T03:18:52.705Z,70.35
2022-08-04T03:22:20.193Z,69.16
2022-08-04T03:26:02.291Z,70.31
2022-08-04T03:29:43.660Z,69.89
2022-08-04T03:33:04.358Z,69.55
2022-08-04T03:37:01.847Z,70.58
2022-08-04T03:40:54.917Z,70.77
2022-08-04T03:44:24.623Z,69.72
2022-08-04T03:48:12.968Z,70.86
2022-08-04T03:52:02.478Z,70.36
2022-08-04T03:55:30.896Z,71.70
2022-08-04T03:58:38.810Z,70.53
2022-08-04T04:02:21.200Z,69.06
2022-08-04T04:06:02.106Z,68.23
2022-08-04T04:09:57.447Z,68.87
2022-08-04T04:13:21.151Z,68.92
2022-08-04T04:16:50.005Z,70.39
2022-08-04T04:20:24.979Z,68.81
2022-08-04T04:23:51.690Z,69.49
2022-08-04T04:27:32.617Z,69.81
2022-08-04T04:31:02.721Z,68.67
2022-08-04T04:34:34.318Z,68.05
2022-08-04T04:37:59.951Z,68.72
2022-08-04T04:41:23.846Z,68.34
2022-08-04T04:45:11.139Z,68.58
2022-08-04T04:48:36.486Z,67.12
2022-08-04T04:51:52.623Z,67.21
2022-08-04T04:55:10.408Z,68.14
2022-08-04T04:58:15.570Z,68.56
2022-08-04T05:01:38.672Z,67.75
2022-08-04T05:05:04.913Z,69.57
2022-08-04T05:08:44.908Z,69.43
2022-08-04T05:14:31.787Z,69.35
2022-08-04T05:16:44.956Z,68.41
2022-08-04T05:20:08.601Z,68.40
2022-08-04T05:23:17.991Z,68.27
2022-08-04T05:26:20.149Z,68.02
2022-08-04T05:29:41.207Z,67.37
2022-08-04T05:33:03.642Z,66.48
2022-08-04T05:36:21.077Z,66.88
2022-08-04T05:39:33.861Z,67.17
2022-08-04T05:42:39.575Z,67.47
2022-08-04T05:45:41.951Z,67.54
2022-08-04T05:48:44.823Z,68.55
2022-08-04T05:51:47.251Z,70.30
2022-08-04T05:54:49.327Z,69.69
2022-08-04T05:57:55.594Z,70.06
2022-08-04T06:00:59.820Z,68.86
2022-08-04T06:04:03.976Z,69.71
2022-08-04T06:07:11.132Z,68.89
2022-08-04T06:10:13.241Z,68.74
2022-08-04T06:13:47.885Z,67.85
2022-08-04T06:16:42.960Z,68.82
2022-08-04T06:19:58.917Z,68.32
2022-08-04T06:23:11.980Z,69.13
2022-08-04T06:26:19.634Z,69.46
2022-08-04T06:29:30.819Z,69.34
2022-08-04T06:32:41.647Z,67.92
2022-08-04T06:35:43.983Z,67.95
2022-08-04T06:38:46.082Z,67.84
2022-08-04T06:42:22.121Z,66.21
2022-08-04T06:45:11.636Z,65.85
2022-08-04T06:48:16.141Z,68.17
2022-08-04T06:51:26.830Z,67.95
2022-08-04T06:54:35.199Z,67.55
2022-08-04T06:57:37.425Z,67.87
2022-08-04T07:00:41.059Z,68.46
2022-08-04T07:03:43.304Z,70.41
2022-08-04T07:06:45.391Z,71.03
2022-08-04T07:09:47.498Z,66.39
2022-08-04T07:12:49.611Z,65.96
2022-08-04T07:15:55.079Z,66.88
2022-08-04T07:18:57.209Z,67.36
2022-08-04T07:22:24.687Z,67.62
2022-08-04T07:25:59.569Z,66.97
2022-08-04T07:28:47.930Z,67.23
2022-08-04T07:31:50.054Z,67.68
2022-08-04T07:34:52.343Z,65.28
2022-08-04T07:37:54.770Z,65.34
2022-08-04T07:40:56.919Z,65.21
2022-08-04T07:43:59.053Z,63.58
2022-08-04T07:47:02.625Z,63.77
2022-08-04T07:50:05.314Z,63.87
2022-08-04T07:53:53.536Z,62.79
2022-08-04T07:56:29.715Z,61.13
2022-08-04T07:59:32.720Z,62.32
2022-08-04T08:02:35.614Z,62.81
2022-08-04T08:06:16.739Z,62.76
2022-08-04T08:09:02.187Z,61.90
2022-08-04T08:12:35.298Z,62.43
2022-08-04T08:15:37.083Z,60.77
2022-08-04T08:18:39.323Z,62.42
2022-08-04T08:21:58.855Z,60.54
2022-08-04T08:25:02.364Z,60.57
2022-08-04T08:28:05.580Z,60.57
2022-08-04T08:31:07.719Z,60.31
2022-08-04T08:34:12.247Z,59.36
2022-08-04T08:37:42.189Z,57.11
2022-08-04T08:41:08.367Z,56.60
2022-08-04T08:44:37.509Z,55.43
2022-08-04T08:48:06.701Z,56.88
2022-08-04T08:51:50.012Z,57.69
2022-08-04T08:55:01.689Z,58.76
2022-08-04T08:58:18.262Z,59.18
2022-08-04T09:02:03.419Z,60.18
2022-08-04T09:05:39.351Z,63.23
2022-08-04T09:09:06.663Z,64.98
2022-08-04T09:12:25.862Z,65.63
2022-08-04T09:15:37.581Z,65.00
2022-08-04T09:18:47.025Z,65.29
2022-08-04T09:22:15.728Z,64.22
2022-08-04T09:25:50.349Z,63.61
2022-08-04T09:29:16.368Z,62.93
2022-08-04T09:32:41.165Z,63.53
2022-08-04T09:35:53.198Z,63.16
2022-08-04T09:39:09.799Z,63.29
2022-08-04T09:42:33.045Z,62.24
2022-08-04T09:46:25.598Z,61.93
2022-08-04T09:49:47.233Z,60.69
2022-08-04T09:53:05.927Z,61.26
2022-08-04T09:56:20.899Z,60.21
2022-08-04T09:59:30.174Z,58.18
2022-08-04T10:02:36.438Z,58.75
2022-08-04T10:05:57.165Z,59.58
2022-08-04T10:09:21.292Z,59.85
2022-08-04T10:12:24.047Z,60.10
2022-08-04T10:15:41.617Z,62.74
2022-08-04T10:19:20.376Z,61.20
2022-08-04T10:22:40.784Z,63.24
2022-08-04T10:26:07.356Z,58.94
2022-08-04T10:29:46.872Z,59.90
2022-08-04T10:33:18.742Z,60.07
2022-08-04T10:36:23.979Z,57.57
2022-08-04T10:40:21.337Z,59.60
2022-08-04T10:43:35.319Z,60.98
2022-08-04T10:46:44.419Z,58.04
2022-08-04T10:49:55.577Z,57.54
2022-08-04T10:53:09.725Z,56.41
2022-08-04T10:56:39.126Z,56.86
2022-08-04T10:59:53.650Z,57.03
2022-08-04T11:03:24.219Z,51.26
2022-08-04T11:06:26.585Z,52.22
2022-08-04T11:09:30.002Z,49.44
2022-08-04T11:12:32.228Z,47.84
2022-08-04T11:15:38.390Z,46.48
2022-08-04T11:19:12.025Z,49.81
2022-08-04T11:22:27.673Z,49.33
2022-08-04T11:25:35.981Z,46.73
2022-08-04T11:29:06.796Z,51.73
2022-08-04T11:32:21.521Z,54.00
2022-08-04T11:35:36.352Z,54.01
2022-08-04T11:38:59.432Z,50.05
2022-08-04T11:42:21.253Z,47.43
2022-08-04T11:45:37.659Z,48.38
2022-08-04T11:48:50.879Z,49.12
2022-08-04T11:51:53.050Z,51.64
2022-08-04T11:54:55.406Z,48.80
2022-08-04T11:57:57.534Z,48.92
2022-08-04T12:01:11.462Z,50.44
2022-08-04T12:05:00.981Z,52.52
2022-08-04T12:08:45.617Z,44.55
2022-08-04T12:12:13.666Z,43.05
2022-08-04T12:15:38.139Z,43.58
2022-08-04T12:18:45.784Z,47.63
2022-08-04T12:21:57.325Z,48.54
2022-08-04T12:25:09.890Z,46.80
2022-08-04T12:28:59.581Z,44.20
2022-08-04T12:32:00.605Z,41.88
2022-08-04T12:35:30.758Z,44.80
2022-08-04T12:38:33.460Z,46.36
2022-08-04T12:41:41.795Z,43.90
2022-08-04T12:44:44.013Z,41.94
2022-08-04T12:47:46.235Z,39.74
2022-08-04T12:50:51.283Z,42.63
2022-08-04T12:53:53.380Z,41.33
2022-08-04T12:56:58.229Z,41.87
2022-08-04T13:00:00.395Z,41.88
2022-08-04T13:03:11.088Z,39.07
2022-08-04T13:06:21.317Z,40.80
2022-08-04T13:09:29.914Z,42.42
2022-08-04T13:12:33.218Z,39.39
2022-08-04T13:15:46.961Z,37.50
2022-08-04T13:18:50.102Z,38.52
2022-08-04T13:22:02.900Z,36.98
2022-08-04T13:26:40.681Z,36.75
2022-08-04T13:28:28.223Z,36.93
2022-08-04T13:31:35.767Z,38.85
2022-08-04T13:34:41.524Z,37.56
2022-08-04T13:37:51.777Z,39.24
2022-08-04T13:40:56.782Z,35.90
2022-08-04T13:44:18.168Z,34.76
2022-08-04T13:47:27.944Z,33.10
2022-08-04T13:50:31.154Z,38.23
2022-08-04T13:53:34.260Z,41.98
2022-08-04T13:56:42.090Z,35.92
2022-08-04T13:59:47.869Z,38.73
2022-08-04T14:02:53.519Z,41.93
2022-08-04T14:06:19.188Z,35.05
2022-08-04T14:09:23.176Z,34.42
2022-08-04T14:12:47.342Z,33.88
2022-08-04T14:16:02.790Z,33.83
2022-08-04T14:19:06.345Z,32.20
2022-08-04T14:22:14.007Z,31.04
2022-08-04T14:25:18.535Z,32.72
2022-08-04T14:29:01.139Z,32.18
2022-08-04T14:31:57.722Z,36.46
2022-08-04T14:35:06.167Z,34.87
2022-08-04T14:38:10.614Z,37.08
2022-08-04T14:41:13.960Z,34.50
2022-08-04T14:44:16.368Z,32.85
2022-08-04T14:47:18.511Z,37.79
2022-08-04T14:50:20.932Z,40.03
2022-08-04T14:53:29.540Z,41.35
2022-08-04T14:56:46.649Z,41.66
2022-08-04T15:00:00.652Z,39.34
2022-08-04T15:03:08.667Z,42.19
2022-08-04T15:06:15.180Z,43.25
2022-08-04T15:09:19.471Z,45.29
2022-08-04T15:12:21.741Z,38.66
2022-08-04T15:15:36.497Z,36.02
2022-08-04T15:18:39.534Z,35.48
2022-08-04T15:21:41.980Z,38.60
2022-08-04T15:24:44.064Z,37.12
2022-08-04T15:27:49.254Z,36.00
2022-08-04T15:30:53.419Z,37.45
2022-08-04T15:33:56.248Z,38.13
2022-08-04T15:37:01.781Z,37.16
2022-08-04T15:40:15.386Z,35.49
2022-08-04T15:43:42.260Z,36.90
2022-08-04T15:47:04.790Z,36.50
2022-08-04T15:50:09.720Z,42.65
2022-08-04T15:53:13.058Z,45.04
2022-08-04T15:56:30.307Z,45.32
2022-08-04T16:00:00.549Z,40.32
2022-08-04T16:03:02.782Z,36.47
2022-08-04T16:06:11.607Z,36.50
2022-08-04T16:09:24.272Z,37.64
2022-08-04T16:13:05.949Z,36.35
2022-08-04T16:16:08.093Z,37.62
2022-08-04T16:19:48.926Z,35.59
2022-08-04T16:22:51.591Z,36.15
2022-08-04T16:25:53.782Z,36.76
2022-08-04T16:28:55.857Z,37.56
2022-08-04T16:32:23.534Z,36.30
2022-08-04T16:35:28.409Z,36.62
2022-08-04T16:38:30.571Z,36.34
2022-08-04T16:41:42.611Z,37.43
2022-08-04T16:44:53.080Z,35.92
2022-08-04T16:47:55.700Z,36.93
2022-08-04T16:51:15.675Z,39.15
2022-08-04T16:54:17.780Z,42.88
2022-08-04T16:57:19.962Z,44.91
2022-08-04T17:00:36.790Z,38.41
2022-08-04T17:03:41.315Z,42.44
2022-08-04T17:06:44.701Z,47.52
2022-08-04T17:09:51.171Z,48.45
2022-08-04T17:13:08.388Z,49.43
2022-08-04T17:16:21.096Z,40.69
2022-08-04T17:19:25.907Z,40.66
2022-08-04T17:22:28.850Z,36.68
2022-08-04T17:25:52.073Z,38.31
2022-08-04T17:28:55.376Z,37.73
2022-08-04T17:31:57.562Z,36.62
2022-08-04T17:35:03.584Z,35.65
2022-08-04T17:38:06.056Z,35.86
2022-08-04T17:41:18.931Z,35.63
2022-08-04T17:44:37.319Z,36.57
2022-08-04T17:47:52.480Z,36.04
2022-08-04T17:50:54.615Z,38.39
2022-08-04T17:54:02.176Z,39.90
2022-08-04T17:57:19.876Z,40.55
2022-08-04T18:00:22.796Z,36.27
2022-08-04T18:03:30.014Z,36.72
2022-08-04T18:06:32.247Z,37.50
2022-08-04T18:10:08.711Z,38.54
2022-08-04T18:13:20.898Z,40.31
2022-08-04T18:16:23.363Z,39.68
2022-08-04T18:19:25.636Z,40.27
2022-08-04T18:22:33.778Z,42.63
2022-08-04T18:25:51.219Z,41.78
2022-08-04T18:28:54.208Z,42.01
2022-08-04T18:31:56.620Z,45.15
2022-08-04T18:35:07.049Z,44.69
2022-08-04T18:38:22.867Z,45.89
2022-08-04T18:41:29.273Z,46.32
2022-08-04T18:44:52.979Z,46.24
2022-08-04T18:47:58.954Z,44.67
2022-08-04T18:51:10.208Z,42.75
2022-08-04T18:54:13.999Z,42.28
2022-08-04T18:57:58.945Z,42.88
2022-08-04T19:00:48.402Z,42.15
2022-08-04T19:03:54.546Z,42.46
2022-08-04T19:07:23.442Z,42.23
2022-08-04T19:10:23.716Z,42.20
2022-08-04T19:13:34.682Z,42.92
2022-08-04T19:16:37.164Z,44.39
2022-08-04T19:19:47.760Z,45.59
2022-08-04T19:24:26.520Z,45.51
2022-08-04T19:26:23.683Z,44.95
2022-08-04T19:29:37.125Z,45.97
2022-08-04T19:32:40.620Z,45.76
2022-08-04T19:35:50.704Z,46.91
2022-08-04T19:38:53.412Z,48.65
2022-08-04T19:42:05.603Z,50.76
2022-08-04T19:45:15.368Z,52.52
2022-08-04T19:48:19.762Z,53.00
2022-08-04T19:51:22.506Z,54.09
2022-08-04T19:54:27.373Z,54.38
2022-08-04T19:57:35.543Z,55.14
2022-08-04T20:00:39.322Z,55.67
2022-08-04T20:04:10.293Z,56.81
2022-08-04T20:07:03.509Z,57.80
2022-08-04T20:10:07.504Z,58.66
2022-08-04T20:13:15.046Z,58.96
2022-08-04T20:16:29.725Z,58.54
2022-08-04T20:19:32.919Z,58.98
2022-08-04T20:22:50.887Z,59.20
2022-08-04T20:25:54.239Z,59.69
2022-08-04T20:28:56.543Z,60.10
2022-08-04T20:32:05.585Z,60.60
2022-08-04T20:35:15.684Z,60.52
2022-08-04T20:38:33.315Z,60.11
2022-08-04T20:41:36.794Z,61.05
2022-08-04T20:44:42.333Z,61.51
2022-08-04T20:47:53.288Z,61.69
2022-08-04T20:50:56.438Z,62.05
2022-08-04T20:53:59.671Z,63.55
2022-08-04T20:57:03.041Z,64.43
2022-08-04T21:00:07.712Z,64.40
2022-08-04T21:03:09.796Z,64.53
2022-08-04T21:06:11.880Z,65.12
2022-08-04T21:09:15.512Z,65.61
2022-08-04T21:12:29.163Z,65.50
2022-08-04T21:15:58.716Z,66.41
2022-08-04T21:18:53.595Z,66.26
2022-08-04T21:21:59.567Z,66.05
2022-08-04T21:25:01.640Z,66.69
2022-08-04T21:28:04.596Z,66.31
2022-08-04T21:31:21.647Z,66.41
2022-08-04T21:34:38.079Z,67.50
2022-08-04T21:37:56.565Z,67.60
2022-08-04T21:41:01.609Z,67.31
2022-08-04T21:44:04.475Z,67.51
2022-08-04T21:47:06.846Z,67.53
2022-08-04T21:50:20.164Z,67.87
2022-08-04T21:53:22.857Z,69.14
2022-08-04T21:56:26.577Z,68.63
2022-08-04T22:06:17.441Z,68.64
2022-08-04T22:12:42.895Z,68.99
2022-08-04T22:16:03.589Z,69.30
2022-08-04T22:19:08.856Z,69.54
2022-08-04T22:22:24.505Z,70.07
2022-08-04T22:25:31.221Z,70.05
2022-08-04T22:28:33.482Z,69.25
2022-08-04T22:31:55.822Z,69.64
2022-08-04T22:35:03.018Z,70.33
2022-08-04T22:38:27.979Z,70.25
2022-08-04T22:41:48.259Z,70.38
2022-08-04T22:44:50.612Z,70.26
2022-08-04T22:47:53.550Z,69.09
2022-08-04T22:50:55.939Z,69.82
2022-08-04T22:54:00.125Z,69.99
2022-08-04T22:57:02.607Z,69.42
2022-08-04T23:00:07.361Z,70.12
2022-08-04T23:03:11.145Z,70.85
2022-08-04T23:06:13.549Z,70.59
2022-08-04T23:09:16.139Z,70.29
2022-08-04T23:12:26.998Z,71.05
2022-08-04T23:15:33.659Z,71.50
2022-08-04T23:18:36.180Z,71.17
2022-08-04T23:21:47.355Z,71.21
2022-08-04T23:24:50.415Z,70.70
2022-08-04T23:27:52.607Z,70.28
2022-08-04T23:30:55.992Z,71.69
2022-08-04T23:33:58.831Z,71.82
2022-08-04T23:37:01.028Z,72.10
2022-08-04T23:40:29.959Z,72.51
2022-08-04T23:43:25.983Z,70.87
2022-08-04T23:46:40.883Z,69.72
2022-08-04T23:49:45.316Z,69.50
2022-08-04T23:52:47.583Z,69.87
2022-08-04T23:55:51.955Z,68.67
2022-08-04T23:58:54.173Z,67.62
